createdAt,value
2023-03-18T00:02:05.697Z,92.90
2023-03-18T00:04:34.997Z,93.50
2023-03-18T00:07:05.461Z,93.40
2023-03-18T00:09:34.659Z,93.10
2023-03-18T00:12:04.151Z,93.70
2023-03-18T00:14:35.076Z,92.30
2023-03-18T00:17:02.231Z,91.80
2023-03-18T00:19:31.003Z,93.60
2023-03-18T00:22:07.967Z,95.00
2023-03-18T00:24:43.973Z,93.20
2023-03-18T00:27:15.753Z,93.50
2023-03-18T00:29:45.227Z,93.10
2023-03-18T00:32:15.566Z,92.50
2023-03-18T00:34:50.552Z,92.30
2023-03-18T00:37:30.750Z,93.80
2023-03-18T00:40:09.557Z,93.30
2023-03-18T00:42:49.112Z,93.30
2023-03-18T00:45:26.088Z,92.00
2023-03-18T00:48:04.419Z,91.70
2023-03-18T00:50:33.674Z,93.10
2023-03-18T00:53:03.572Z,92.20
2023-03-18T00:55:33.937Z,92.40
2023-03-18T00:58:01.167Z,92.40
2023-03-18T01:00:33.700Z,92.60
2023-03-18T01:03:02.210Z,92.40
2023-03-18T01:06:32.021Z,92.30
2023-03-18T01:09:01.850Z,92.60
2023-03-18T01:11:29.439Z,91.70
2023-03-18T01:14:09.748Z,91.70
2023-03-18T01:16:38.839Z,91.40
2023-03-18T01:19:12.384Z,91.80
2023-03-18T01:21:43.227Z,92.10
2023-03-18T01:24:12.190Z,91.80
2023-03-18T01:26:42.773Z,92.10
2023-03-18T01:29:18.732Z,92.40
2023-03-18T01:31:49.517Z,92.60
2023-03-18T01:34:21.466Z,92.00
2023-03-18T01:36:49.055Z,91.20
2023-03-18T01:39:25.066Z,91.90
2023-03-18T01:41:55.086Z,91.80
2023-03-18T01:44:25.977Z,92.10
2023-03-18T01:46:55.565Z,91.60
2023-03-18T01:49:35.837Z,91.70
2023-03-18T01:52:27.075Z,91.50
2023-03-18T01:55:04.375Z,91.60
2023-03-18T01:57:35.458Z,91.70
2023-03-18T02:00:24.781Z,91.70
2023-03-18T02:02:59.355Z,91.20
2023-03-18T02:05:36.321Z,91.20
2023-03-18T02:08:04.876Z,91.30
2023-03-18T02:10:33.861Z,91.70
2023-03-18T02:13:16.997Z,91.30
2023-03-18T02:15:57.302Z,91.00
2023-03-18T02:18:38.151Z,91.20
2023-03-18T02:21:53.817Z,91.30
2023-03-18T02:24:32.576Z,91.10
2023-03-18T02:27:23.262Z,91.20
2023-03-18T02:30:05.048Z,91.30
2023-03-18T02:32:37.279Z,91.60
2023-03-18T02:35:10.167Z,91.60
2023-03-18T02:37:39.864Z,91.70
2023-03-18T02:40:27.022Z,91.80
2023-03-18T02:42:57.490Z,92.10
2023-03-18T02:46:04.158Z,92.10
2023-03-18T02:48:50.015Z,92.40
2023-03-18T02:51:27.249Z,92.60
2023-03-18T02:54:16.802Z,92.80
2023-03-18T02:56:47.760Z,92.70
2023-03-18T02:59:19.368Z,92.90
2023-03-18T03:01:52.415Z,92.80
2023-03-18T03:04:27.710Z,92.80
2023-03-18T03:06:57.598Z,93.10
2023-03-18T03:09:26.922Z,93.50
2023-03-18T03:11:56.626Z,93.70
2023-03-18T03:14:27.862Z,93.90
2023-03-18T03:17:00.402Z,94.00
2023-03-18T03:19:28.778Z,94.00
2023-03-18T03:21:59.560Z,93.90
2023-03-18T03:24:28.041Z,94.80
2023-03-18T03:26:55.385Z,94.70
2023-03-18T03:29:22.963Z,94.40
2023-03-18T03:31:52.368Z,95.10
2023-03-18T03:34:23.997Z,95.10
2023-03-18T03:37:01.589Z,95.20
2023-03-18T03:39:28.692Z,95.10
2023-03-18T03:42:05.466Z,94.90
2023-03-18T03:44:33.623Z,95.10
2023-03-18T03:47:10.656Z,94.80
2023-03-18T03:49:42.126Z,95.30
2023-03-18T03:52:11.785Z,95.30
2023-03-18T03:54:42.841Z,94.50
2023-03-18T03:57:13.376Z,94.90
2023-03-18T03:59:42.707Z,94.80
2023-03-18T04:02:18.743Z,94.60
2023-03-18T04:04:49.025Z,95.10
2023-03-18T04:07:17.965Z,94.70
2023-03-18T04:09:48.102Z,95.10
2023-03-18T04:12:26.726Z,94.90
2023-03-18T04:15:05.800Z,95.60
2023-03-18T04:17:39.633Z,95.30
2023-03-18T04:20:09.486Z,96.30
2023-03-18T04:22:46.896Z,96.10
2023-03-18T04:25:18.001Z,96.10
2023-03-18T04:27:55.238Z,96.20
2023-03-18T04:30:25.800Z,95.50
2023-03-18T04:32:55.605Z,95.90
2023-03-18T04:35:30.617Z,95.20
2023-03-18T04:38:01.537Z,95.80
2023-03-18T04:40:33.344Z,96.70
2023-03-18T04:43:05.478Z,96.80
2023-03-18T04:45:34.725Z,96.10
2023-03-18T04:48:05.301Z,95.80
2023-03-18T04:50:36.068Z,96.70
2023-03-18T04:55:45.868Z,96.60
2023-03-18T04:58:13.901Z,96.10
2023-03-18T05:00:44.751Z,96.00
2023-03-18T05:03:15.673Z,96.00
2023-03-18T05:05:46.758Z,96.10
2023-03-18T05:08:17.443Z,96.10
2023-03-18T05:10:46.554Z,96.00
2023-03-18T05:13:22.184Z,96.00
2023-03-18T05:15:49.397Z,95.90
2023-03-18T05:18:16.880Z,95.90
2023-03-18T05:20:44.560Z,95.90
2023-03-18T05:23:13.278Z,96.00
2023-03-18T05:26:03.271Z,95.80
2023-03-18T05:28:33.854Z,95.60
2023-03-18T05:31:01.560Z,95.60
2023-03-18T05:33:28.656Z,95.10
2023-03-18T05:35:59.277Z,94.10
2023-03-18T05:38:29.182Z,93.90
2023-03-18T05:40:57.589Z,93.30
2023-03-18T05:43:29.690Z,92.10
2023-03-18T05:46:00.175Z,91.10
2023-03-18T05:48:29.273Z,90.70
2023-03-18T05:50:59.818Z,90.10
2023-03-18T05:53:29.715Z,89.70
2023-03-18T05:55:56.983Z,89.30
2023-03-18T05:58:27.001Z,90.60
2023-03-18T06:01:01.783Z,90.30
2023-03-18T06:03:29.951Z,78.40
2023-03-18T06:05:59.945Z,73.80
2023-03-18T06:08:29.964Z,77.10
2023-03-18T06:11:00.385Z,79.50
2023-03-18T06:13:29.725Z,81.90
2023-03-18T06:16:07.271Z,84.30
2023-03-18T06:18:35.500Z,84.20
2023-03-18T06:21:10.928Z,89.10
2023-03-18T06:23:39.972Z,89.10
2023-03-18T06:28:57.082Z,90.20
2023-03-18T06:31:34.823Z,91.20
2023-03-18T06:34:06.977Z,92.00
2023-03-18T06:36:35.541Z,89.80
2023-03-18T06:39:04.530Z,89.40
2023-03-18T06:41:33.278Z,87.30
2023-03-18T06:44:03.026Z,89.70
2023-03-18T06:46:33.435Z,89.50
2023-03-18T06:49:03.137Z,89.40
2023-03-18T06:51:38.475Z,93.50
2023-03-18T06:54:07.438Z,92.30
2023-03-18T06:56:56.255Z,89.90
2023-03-18T06:59:26.854Z,90.10
2023-03-18T07:01:57.934Z,92.20
2023-03-18T07:04:26.654Z,93.10
2023-03-18T07:06:54.936Z,87.70
2023-03-18T07:09:22.932Z,93.80
2023-03-18T07:11:50.299Z,85.80
2023-03-18T07:14:29.979Z,89.40
2023-03-18T07:16:59.939Z,91.20
2023-03-18T07:19:27.541Z,91.30
2023-03-18T07:22:04.719Z,91.10
2023-03-18T07:24:35.421Z,89.50
2023-03-18T07:27:05.766Z,89.50
2023-03-18T07:29:36.192Z,92.00
2023-03-18T07:32:05.925Z,90.80
2023-03-18T07:34:36.596Z,90.30
2023-03-18T07:37:06.192Z,88.50
2023-03-18T07:39:34.151Z,87.80
2023-03-18T07:42:02.838Z,87.10
2023-03-18T07:44:39.069Z,88.50
2023-03-18T07:47:09.549Z,82.50
2023-03-18T07:49:37.974Z,84.20
2023-03-18T07:52:07.504Z,82.80
2023-03-18T07:54:40.708Z,83.20
2023-03-18T07:57:14.236Z,76.10
2023-03-18T07:59:52.840Z,77.40
2023-03-18T08:02:23.922Z,71.50
2023-03-18T08:04:56.166Z,70.90
2023-03-18T08:07:29.483Z,69.50
2023-03-18T08:09:58.005Z,69.80
2023-03-18T08:12:38.480Z,70.40
2023-03-18T08:15:18.723Z,67.40
2023-03-18T08:17:48.778Z,65.40
2023-03-18T08:20:17.147Z,65.90
2023-03-18T08:22:46.619Z,63.90
2023-03-18T08:25:19.481Z,67.20
2023-03-18T08:27:49.947Z,64.50
2023-03-18T08:30:18.461Z,66.20
2023-03-18T08:32:47.249Z,66.60
2023-03-18T08:35:15.946Z,70.80
2023-03-18T08:37:44.760Z,68.10
2023-03-18T08:40:13.761Z,66.90
2023-03-18T08:42:44.041Z,71.50
2023-03-18T08:45:15.617Z,73.10
2023-03-18T08:47:45.168Z,71.80
2023-03-18T08:50:15.021Z,72.40
2023-03-18T08:52:43.473Z,72.30
2023-03-18T08:55:17.459Z,74.10
2023-03-18T08:58:07.121Z,76.60
2023-03-18T09:00:37.886Z,78.40
2023-03-18T09:03:06.915Z,73.90
2023-03-18T09:05:35.579Z,74.10
2023-03-18T09:08:05.687Z,76.70
2023-03-18T09:10:41.703Z,72.00
2023-03-18T11:49:46.200Z,81.10
2023-03-18T12:35:29.177Z,73.60
2023-03-18T14:25:30.473Z,75.40
2023-03-18T16:57:55.321Z,79.10
2023-03-18T17:05:06.058Z,82.80
2023-03-18T17:16:11.072Z,84.70
2023-03-18T17:19:08.318Z,85.10
2023-03-18T17:39:24.172Z,86.80
2023-03-18T18:04:04.638Z,86.70
2023-03-18T21:44:56.035Z,98.80
2023-03-18T22:27:46.206Z,99.90
2023-03-18T22:38:00.900Z,99.90
2023-03-18T22:58:14.479Z,99.30
2023-03-18T23:59:01.656Z,99.90
